METAR Data
IDs: Format: Raw Decoded Include TAF

Data at: 1210 UTC 21 Apr 2021

PKMR 211150Z 07006KT 15SM FEW015 SCT050 BKN120 BKN300 27/24 A2987 RMK SLP117 8/871 T02710240 10284 20271 50003